sensor_id;sensor_type;location;lat;lon;timestamp;pressure;altitude;pressure_sealevel;temperature;humidity
68433;BME280;55412;51.350;17.056;2023-11-19T00:00:36;100764.34;;;1.67;84.03
68433;BME280;55412;51.350;17.056;2023-11-19T00:03:01;100767.78;;;1.67;83.60
68433;BME280;55412;51.350;17.056;2023-11-19T00:05:27;100751.25;;;1.59;83.30
68433;BME280;55412;51.350;17.056;2023-11-19T00:07:54;100746.34;;;1.64;83.94
68433;BME280;55412;51.350;17.056;2023-11-19T00:10:20;100735.97;;;1.61;83.70
68433;BME280;55412;51.350;17.056;2023-11-19T00:12:47;100729.03;;;1.58;83.50
68433;BME280;55412;51.350;17.056;2023-11-19T00:15:14;100717.25;;;1.62;83.95
68433;BME280;55412;51.350;17.056;2023-11-19T00:17:41;100725.72;;;1.61;83.77
68433;BME280;55412;51.350;17.056;2023-11-19T00:20:17;100723.16;;;1.61;83.54
68433;BME280;55412;51.350;17.056;2023-11-19T00:22:43;100726.59;;;1.61;84.10
68433;BME280;55412;51.350;17.056;2023-11-19T00:25:09;100709.50;;;1.60;83.82
68433;BME280;55412;51.350;17.056;2023-11-19T00:27:36;100695.84;;;1.60;83.98
68433;BME280;55412;51.350;17.056;2023-11-19T00:30:04;100689.03;;;1.60;84.23
68433;BME280;55412;51.350;17.056;2023-11-19T00:32:31;100683.91;;;1.60;84.04
68433;BME280;55412;51.350;17.056;2023-11-19T00:34:57;100666.84;;;1.59;84.19
68433;BME280;55412;51.350;17.056;2023-11-19T00:37:23;100669.38;;;1.59;84.02
68433;BME280;55412;51.350;17.056;2023-11-19T00:39:49;100666.72;;;1.56;84.28
68433;BME280;55412;51.350;17.056;2023-11-19T00:42:14;100658.81;;;1.50;83.66
68433;BME280;55412;51.350;17.056;2023-11-19T00:44:40;100656.19;;;1.49;83.61
68433;BME280;55412;51.350;17.056;2023-11-19T00:47:07;100644.16;;;1.46;83.97
68433;BME280;55412;51.350;17.056;2023-11-19T00:49:32;100632.75;;;1.38;83.62
68433;BME280;55412;51.350;17.056;2023-11-19T00:51:59;100643.03;;;1.39;83.58
68433;BME280;55412;51.350;17.056;2023-11-19T00:54:25;100622.16;;;1.29;83.65
68433;BME280;55412;51.350;17.056;2023-11-19T00:56:54;100641.00;;;1.31;84.23
68433;BME280;55412;51.350;17.056;2023-11-19T00:59:20;100645.19;;;1.29;83.84
68433;BME280;55412;51.350;17.056;2023-11-19T01:01:46;100624.53;;;1.24;84.11
68433;BME280;55412;51.350;17.056;2023-11-19T01:04:16;100615.06;;;1.22;83.71
68433;BME280;55412;51.350;17.056;2023-11-19T01:06:42;100611.59;;;1.20;84.17
68433;BME280;55412;51.350;17.056;2023-11-19T01:09:08;100603.06;;;1.19;83.87
68433;BME280;55412;51.350;17.056;2023-11-19T01:11:35;100591.81;;;1.16;83.79
68433;BME280;55412;51.350;17.056;2023-11-19T01:14:01;100582.34;;;1.13;84.39
68433;BME280;55412;51.350;17.056;2023-11-19T01:16:30;100569.34;;;1.07;84.01
68433;BME280;55412;51.350;17.056;2023-11-19T01:18:59;100565.22;;;1.10;84.44
68433;BME280;55412;51.350;17.056;2023-11-19T01:21:29;100558.34;;;1.09;84.16
68433;BME280;55412;51.350;17.056;2023-11-19T01:23:55;100548.94;;;1.08;83.91
68433;BME280;55412;51.350;17.056;2023-11-19T01:26:21;100541.16;;;1.05;84.37
68433;BME280;55412;51.350;17.056;2023-11-19T01:28:47;100525.00;;;1.06;84.25
68433;BME280;55412;51.350;17.056;2023-11-19T01:31:16;100514.69;;;1.03;84.45
68433;BME280;55412;51.350;17.056;2023-11-19T01:33:42;100528.38;;;1.05;84.17
68433;BME280;55412;51.350;17.056;2023-11-19T01:36:08;100523.22;;;1.04;84.49
68433;BME280;55412;51.350;17.056;2023-11-19T01:38:35;100519.78;;;1.03;84.83
68433;BME280;55412;51.350;17.056;2023-11-19T01:41:01;100510.31;;;1.01;84.41
68433;BME280;55412;51.350;17.056;2023-11-19T01:45:58;100518.03;;;1.02;84.79
68433;BME280;55412;51.350;17.056;2023-11-19T01:48:24;100517.00;;;0.97;84.44
68433;BME280;55412;51.350;17.056;2023-11-19T01:50:51;100523.97;;;1.01;84.75
68433;BME280;55412;51.350;17.056;2023-11-19T01:53:19;100523.28;;;1.05;84.38
68433;BME280;55412;51.350;17.056;2023-11-19T01:55:46;100525.00;;;1.06;84.62
68433;BME280;55412;51.350;17.056;2023-11-19T01:58:13;100512.28;;;1.08;84.76
68433;BME280;55412;51.350;17.056;2023-11-19T02:00:39;100502.06;;;1.08;84.06
68433;BME280;55412;51.350;17.056;2023-11-19T02:03:06;100491.59;;;1.02;84.54
68433;BME280;55412;51.350;17.056;2023-11-19T02:05:34;100494.38;;;1.08;84.50
68433;BME280;55412;51.350;17.056;2023-11-19T02:08:00;100500.38;;;1.08;84.74
68433;BME280;55412;51.350;17.056;2023-11-19T02:10:27;100501.25;;;1.09;84.11
68433;BME280;55412;51.350;17.056;2023-11-19T02:12:53;100509.72;;;1.08;84.27
68433;BME280;55412;51.350;17.056;2023-11-19T02:15:20;100502.88;;;1.07;84.01
68433;BME280;55412;51.350;17.056;2023-11-19T02:17:50;100483.88;;;1.00;84.65
68433;BME280;55412;51.350;17.056;2023-11-19T02:20:16;100491.84;;;1.08;84.41
68433;BME280;55412;51.350;17.056;2023-11-19T02:22:43;100487.59;;;1.08;84.07
68433;BME280;55412;51.350;17.056;2023-11-19T02:25:30;100485.03;;;1.08;84.43
68433;BME280;55412;51.350;17.056;2023-11-19T02:28:02;100485.09;;;1.10;84.23
68433;BME280;55412;51.350;17.056;2023-11-19T02:30:29;100468.09;;;1.10;84.62
68433;BME280;55412;51.350;17.056;2023-11-19T02:33:00;100451.00;;;1.09;84.76
68433;BME280;55412;51.350;17.056;2023-11-19T02:35:31;100447.66;;;1.10;84.41
68433;BME280;55412;51.350;17.056;2023-11-19T02:37:58;100448.56;;;1.13;84.76
68433;BME280;55412;51.350;17.056;2023-11-19T02:40:24;100436.72;;;1.15;84.59
68433;BME280;55412;51.350;17.056;2023-11-19T02:42:51;100438.44;;;1.16;84.52
68433;BME280;55412;51.350;17.056;2023-11-19T02:45:18;100419.69;;;1.15;84.75
68433;BME280;55412;51.350;17.056;2023-11-19T02:47:44;100419.81;;;1.18;84.78
68433;BME280;55412;51.350;17.056;2023-11-19T02:50:13;100418.19;;;1.20;84.26
68433;BME280;55412;51.350;17.056;2023-11-19T02:52:44;100418.03;;;1.17;84.32
68433;BME280;55412;51.350;17.056;2023-11-19T02:55:11;100422.53;;;1.23;84.20
68433;BME280;55412;51.350;17.056;2023-11-19T02:57:41;100410.66;;;1.25;84.38
68433;BME280;55412;51.350;17.056;2023-11-19T03:00:19;100395.94;;;1.18;84.43
68433;BME280;55412;51.350;17.056;2023-11-19T03:02:49;100397.00;;;1.24;84.12
68433;BME280;55412;51.350;17.056;2023-11-19T03:05:24;100402.97;;;1.25;84.70
68433;BME280;55412;51.350;17.056;2023-11-19T03:07:50;100400.44;;;1.25;84.63
68433;BME280;55412;51.350;17.056;2023-11-19T03:10:16;100385.91;;;1.24;84.50
68433;BME280;55412;51.350;17.056;2023-11-19T03:12:42;100384.22;;;1.24;84.68
68433;BME280;55412;51.350;17.056;2023-11-19T03:15:09;100358.38;;;1.17;84.07
68433;BME280;55412;51.350;17.056;2023-11-19T03:17:39;100367.97;;;1.22;84.40
68433;BME280;55412;51.350;17.056;2023-11-19T03:20:07;100349.97;;;1.19;84.48
68433;BME280;55412;51.350;17.056;2023-11-19T03:22:36;100356.06;;;1.23;84.38
68433;BME280;55412;51.350;17.056;2023-11-19T03:25:03;100346.69;;;1.23;84.39
68433;BME280;55412;51.350;17.056;2023-11-19T03:27:29;100327.09;;;1.24;84.59
68433;BME280;55412;51.350;17.056;2023-11-19T03:29:55;100343.31;;;1.24;84.51
68433;BME280;55412;51.350;17.056;2023-11-19T03:32:20;100343.28;;;1.23;84.48
68433;BME280;55412;51.350;17.056;2023-11-19T03:34:46;100337.28;;;1.22;84.24
68433;BME280;55412;51.350;17.056;2023-11-19T03:37:12;100320.25;;;1.23;83.95
68433;BME280;55412;51.350;17.056;2023-11-19T03:39:41;100312.59;;;1.23;83.95
68433;BME280;55412;51.350;17.056;2023-11-19T03:42:07;100315.16;;;1.23;84.24
68433;BME280;55412;51.350;17.056;2023-11-19T03:44:33;100313.47;;;1.23;84.54
68433;BME280;55412;51.350;17.056;2023-11-19T03:46:58;100287.59;;;1.14;84.41
68433;BME280;55412;51.350;17.056;2023-11-19T03:49:24;100305.78;;;1.23;84.57
68433;BME280;55412;51.350;17.056;2023-11-19T03:51:50;100314.22;;;1.21;84.36
68433;BME280;55412;51.350;17.056;2023-11-19T03:54:15;100300.63;;;1.22;83.97
68433;BME280;55412;51.350;17.056;2023-11-19T03:56:41;100290.41;;;1.22;84.32
68433;BME280;55412;51.350;17.056;2023-11-19T03:59:07;100280.69;;;1.12;84.01
68433;BME280;55412;51.350;17.056;2023-11-19T04:01:34;100280.13;;;1.20;84.01
68433;BME280;55412;51.350;17.056;2023-11-19T04:04:00;100276.66;;;1.18;83.85
68433;BME280;55412;51.350;17.056;2023-11-19T04:06:26;100265.56;;;1.18;83.97
68433;BME280;55412;51.350;17.056;2023-11-19T04:08:51;100264.63;;;1.16;84.27
68433;BME280;55412;51.350;17.056;2023-11-19T04:11:17;100241.31;;;1.06;84.11
68433;BME280;55412;51.350;17.056;2023-11-19T04:13:43;100240.66;;;1.12;84.18
68433;BME280;55412;51.350;17.056;2023-11-19T04:16:09;100233.88;;;1.13;83.97
68433;BME280;55412;51.350;17.056;2023-11-19T04:18:35;100231.28;;;1.11;83.86
68433;BME280;55412;51.350;17.056;2023-11-19T04:21:01;100219.28;;;1.10;83.86
68433;BME280;55412;51.350;17.056;2023-11-19T04:23:26;100202.22;;;1.09;84.09
68433;BME280;55412;51.350;17.056;2023-11-19T04:25:52;100195.31;;;1.06;83.95
68433;BME280;55412;51.350;17.056;2023-11-19T04:28:18;100188.44;;;1.04;84.01
68433;BME280;55412;51.350;17.056;2023-11-19T04:30:43;100173.16;;;1.05;84.18
68433;BME280;55412;51.350;17.056;2023-11-19T04:33:09;100161.16;;;1.03;84.31
68433;BME280;55412;51.350;17.056;2023-11-19T04:35:35;100168.72;;;1.01;84.23
68433;BME280;55412;51.350;17.056;2023-11-19T04:38:01;100149.72;;;0.93;84.07
68433;BME280;55412;51.350;17.056;2023-11-19T04:40:27;100151.63;;;0.99;84.41
68433;BME280;55412;51.350;17.056;2023-11-19T04:42:53;100147.97;;;0.91;84.50
68433;BME280;55412;51.350;17.056;2023-11-19T04:45:18;100155.75;;;0.95;84.11
68433;BME280;55412;51.350;17.056;2023-11-19T04:47:45;100157.56;;;0.98;84.35
68433;BME280;55412;51.350;17.056;2023-11-19T04:50:11;100152.44;;;0.98;84.05
68433;BME280;55412;51.350;17.056;2023-11-19T04:52:39;100155.00;;;0.98;84.36
68433;BME280;55412;51.350;17.056;2023-11-19T04:55:06;100140.53;;;0.98;84.54
68433;BME280;55412;51.350;17.056;2023-11-19T04:57:31;100145.66;;;0.98;83.72
68433;BME280;55412;51.350;17.056;2023-11-19T04:59:58;100148.22;;;0.98;84.46
68433;BME280;55412;51.350;17.056;2023-11-19T05:02:24;100138.03;;;1.00;84.49
68433;BME280;55412;51.350;17.056;2023-11-19T05:04:50;100112.31;;;0.95;84.73
68433;BME280;55412;51.350;17.056;2023-11-19T05:07:15;100114.25;;;1.02;83.64
68433;BME280;55412;51.350;17.056;2023-11-19T05:09:41;100110.91;;;1.03;84.10
68433;BME280;55412;51.350;17.056;2023-11-19T05:12:08;100111.69;;;1.02;84.11
68433;BME280;55412;51.350;17.056;2023-11-19T05:14:37;100116.06;;;1.05;84.09
68433;BME280;55412;51.350;17.056;2023-11-19T05:17:03;100121.22;;;1.06;83.77
68433;BME280;55412;51.350;17.056;2023-11-19T05:19:29;100125.50;;;1.07;84.24
68433;BME280;55412;51.350;17.056;2023-11-19T05:21:54;100119.59;;;1.10;84.19
68433;BME280;55412;51.350;17.056;2023-11-19T05:24:20;100102.47;;;1.06;84.46
68433;BME280;55412;51.350;17.056;2023-11-19T05:26:46;100112.09;;;1.15;84.13
68433;BME280;55412;51.350;17.056;2023-11-19T05:29:12;100090.88;;;1.17;84.50
68433;BME280;55412;51.350;17.056;2023-11-19T05:31:38;100093.50;;;1.19;83.84
68433;BME280;55412;51.350;17.056;2023-11-19T05:34:04;100082.34;;;1.17;84.15
68433;BME280;55412;51.350;17.056;2023-11-19T05:36:29;100075.63;;;1.20;83.98
68433;BME280;55412;51.350;17.056;2023-11-19T05:38:56;100088.50;;;1.23;84.02
68433;BME280;55412;51.350;17.056;2023-11-19T05:41:21;100089.38;;;1.24;84.11
68433;BME280;55412;51.350;17.056;2023-11-19T05:43:47;100082.72;;;1.29;84.21
68433;BME280;55412;51.350;17.056;2023-11-19T05:46:13;100085.34;;;1.32;83.97
68433;BME280;55412;51.350;17.056;2023-11-19T05:48:38;100066.56;;;1.30;84.15
68433;BME280;55412;51.350;17.056;2023-11-19T05:51:05;100057.88;;;1.25;83.93
68433;BME280;55412;51.350;17.056;2023-11-19T05:53:31;100072.63;;;1.33;83.66
68433;BME280;55412;51.350;17.056;2023-11-19T05:55:57;100067.66;;;1.38;84.34
68433;BME280;55412;51.350;17.056;2023-11-19T05:58:27;100071.13;;;1.40;84.05
68433;BME280;55412;51.350;17.056;2023-11-19T06:00:55;100054.91;;;1.39;83.90
68433;BME280;55412;51.350;17.056;2023-11-19T06:03:21;100065.19;;;1.41;83.92
68433;BME280;55412;51.350;17.056;2023-11-19T06:05:47;100028.03;;;1.24;84.17
68433;BME280;55412;51.350;17.056;2023-11-19T06:08:14;100042.91;;;1.37;83.72
68433;BME280;55412;51.350;17.056;2023-11-19T06:10:43;100030.16;;;1.38;83.79
68433;BME280;55412;51.350;17.056;2023-11-19T06:13:12;100022.72;;;1.46;83.96
68433;BME280;55412;51.350;17.056;2023-11-19T06:15:38;100039.03;;;1.50;83.67
68433;BME280;55412;51.350;17.056;2023-11-19T06:18:03;100027.78;;;1.45;83.77
68433;BME280;55412;51.350;17.056;2023-11-19T06:20:30;100037.38;;;1.52;83.99
68433;BME280;55412;51.350;17.056;2023-11-19T06:22:56;100030.53;;;1.51;83.73
68433;BME280;55412;51.350;17.056;2023-11-19T06:25:23;100019.47;;;1.52;83.53
68433;BME280;55412;51.350;17.056;2023-11-19T06:27:52;100020.34;;;1.52;83.33
68433;BME280;55412;51.350;17.056;2023-11-19T06:30:18;99996.44;;;1.52;83.68
68433;BME280;55412;51.350;17.056;2023-11-19T06:32:45;100005.00;;;1.52;83.30
68433;BME280;55412;51.350;17.056;2023-11-19T06:35:10;99988.88;;;1.55;83.73
68433;BME280;55412;51.350;17.056;2023-11-19T06:37:38;99998.31;;;1.57;83.60
68433;BME280;55412;51.350;17.056;2023-11-19T06:40:05;100005.16;;;1.58;83.66
68433;BME280;55412;51.350;17.056;2023-11-19T06:42:32;99988.16;;;1.60;83.11
68433;BME280;55412;51.350;17.056;2023-11-19T06:44:58;99989.13;;;1.64;83.05
68433;BME280;55412;51.350;17.056;2023-11-19T06:47:27;99979.75;;;1.64;83.28
68433;BME280;55412;51.350;17.056;2023-11-19T06:49:54;99957.53;;;1.62;83.31
68433;BME280;55412;51.350;17.056;2023-11-19T06:52:20;99965.47;;;1.73;83.59
68433;BME280;55412;51.350;17.056;2023-11-19T06:54:46;99971.50;;;1.75;83.26
68433;BME280;55412;51.350;17.056;2023-11-19T06:57:11;99954.56;;;1.78;83.49
68433;BME280;55412;51.350;17.056;2023-11-19T06:59:38;99939.22;;;1.80;83.14
68433;BME280;55412;51.350;17.056;2023-11-19T07:02:04;99942.78;;;1.85;83.48
68433;BME280;55412;51.350;17.056;2023-11-19T07:04:30;99914.56;;;1.83;83.21
68433;BME280;55412;51.350;17.056;2023-11-19T07:06:57;99923.34;;;1.91;83.47
68433;BME280;55412;51.350;17.056;2023-11-19T07:09:22;99917.38;;;1.91;83.16
68433;BME280;55412;51.350;17.056;2023-11-19T07:11:49;99905.28;;;1.85;83.31
68433;BME280;55412;51.350;17.056;2023-11-19T07:14:18;99905.50;;;1.94;83.10
68433;BME280;55412;51.350;17.056;2023-11-19T07:16:44;99906.38;;;1.97;83.00
68433;BME280;55412;51.350;17.056;2023-11-19T07:19:11;99885.84;;;1.93;83.19
68433;BME280;55412;51.350;17.056;2023-11-19T07:21:40;99889.44;;;2.00;82.97
68433;BME280;55412;51.350;17.056;2023-11-19T07:24:09;99890.34;;;2.04;83.36
68433;BME280;55412;51.350;17.056;2023-11-19T07:26:35;99869.13;;;2.06;83.63
68433;BME280;55412;51.350;17.056;2023-11-19T07:29:02;99875.19;;;2.11;83.09
68433;BME280;55412;51.350;17.056;2023-11-19T07:31:28;99876.16;;;2.16;83.30
68433;BME280;55412;51.350;17.056;2023-11-19T07:33:54;99881.44;;;2.22;83.30
68433;BME280;55412;51.350;17.056;2023-11-19T07:36:20;99872.16;;;2.28;82.92
68433;BME280;55412;51.350;17.056;2023-11-19T07:38:46;99884.19;;;2.30;83.25
68433;BME280;55412;51.350;17.056;2023-11-19T07:41:13;99841.06;;;2.12;82.82
68433;BME280;55412;51.350;17.056;2023-11-19T07:43:39;99874.09;;;2.38;83.19
68433;BME280;55412;51.350;17.056;2023-11-19T07:46:10;99855.41;;;2.42;83.23
68433;BME280;55412;51.350;17.056;2023-11-19T07:48:38;99856.19;;;2.38;83.26
68433;BME280;55412;51.350;17.056;2023-11-19T07:51:04;99860.63;;;2.45;83.14
68433;BME280;55412;51.350;17.056;2023-11-19T07:53:30;99848.69;;;2.47;82.95
68433;BME280;55412;51.350;17.056;2023-11-19T07:55:56;99845.25;;;2.45;83.30
68433;BME280;55412;51.350;17.056;2023-11-19T07:58:21;99857.34;;;2.52;82.80
68433;BME280;55412;51.350;17.056;2023-11-19T08:00:47;99849.66;;;2.52;82.83
68433;BME280;55412;51.350;17.056;2023-11-19T08:03:13;99842.00;;;2.52;83.21
68433;BME280;55412;51.350;17.056;2023-11-19T08:05:38;99846.25;;;2.52;82.83
68433;BME280;55412;51.350;17.056;2023-11-19T08:08:04;99835.09;;;2.49;83.10
68433;BME280;55412;51.350;17.056;2023-11-19T08:10:30;99821.31;;;2.43;82.94
68433;BME280;55412;51.350;17.056;2023-11-19T08:12:58;99834.19;;;2.47;82.87
68433;BME280;55412;51.350;17.056;2023-11-19T08:15:24;99813.53;;;2.40;83.03
68433;BME280;55412;51.350;17.056;2023-11-19T08:17:49;99817.75;;;2.36;82.69
68433;BME280;55412;51.350;17.056;2023-11-19T08:20:16;99814.22;;;2.33;82.76
68433;BME280;55412;51.350;17.056;2023-11-19T08:22:42;99816.72;;;2.28;82.63
68433;BME280;55412;51.350;17.056;2023-11-19T08:25:08;99810.59;;;2.21;82.74
68433;BME280;55412;51.350;17.056;2023-11-19T08:27:34;99808.75;;;2.16;82.66
68433;BME280;55412;51.350;17.056;2023-11-19T08:30:00;99788.16;;;2.11;82.73
68433;BME280;55412;51.350;17.056;2023-11-19T08:32:26;99778.72;;;2.09;82.80
68433;BME280;55412;51.350;17.056;2023-11-19T08:34:53;99772.59;;;2.02;83.03
68433;BME280;55412;51.350;17.056;2023-11-19T08:37:18;99764.09;;;2.03;82.91
68433;BME280;55412;51.350;17.056;2023-11-19T08:39:47;99755.50;;;2.00;82.88
68433;BME280;55412;51.350;17.056;2023-11-19T08:42:13;99750.19;;;1.92;83.28
68433;BME280;55412;51.350;17.056;2023-11-19T08:44:40;99758.81;;;1.97;83.29
68433;BME280;55412;51.350;17.056;2023-11-19T08:47:12;99747.66;;;1.92;83.61
68433;BME280;55412;51.350;17.056;2023-11-19T08:49:39;99742.59;;;1.95;83.05
68433;BME280;55412;51.350;17.056;2023-11-19T08:52:05;99738.31;;;1.94;82.87
68433;BME280;55412;51.350;17.056;2023-11-19T08:54:42;99713.34;;;1.84;83.42
68433;BME280;55412;51.350;17.056;2023-11-19T08:57:08;99736.38;;;1.84;83.36
68433;BME280;55412;51.350;17.056;2023-11-19T08:59:34;99746.78;;;1.91;83.53
68433;BME280;55412;51.350;17.056;2023-11-19T09:02:00;99726.06;;;1.81;83.33
68433;BME280;55412;51.350;17.056;2023-11-19T09:04:25;99738.25;;;1.91;83.25
68433;BME280;55412;51.350;17.056;2023-11-19T09:06:51;99735.63;;;1.89;83.16
68433;BME280;55412;51.350;17.056;2023-11-19T09:09:17;99734.00;;;1.91;83.60
68433;BME280;55412;51.350;17.056;2023-11-19T09:11:43;99727.16;;;1.92;83.09
68433;BME280;55412;51.350;17.056;2023-11-19T09:14:09;99728.00;;;1.91;83.31
68433;BME280;55412;51.350;17.056;2023-11-19T09:16:34;99717.78;;;1.91;83.28
68433;BME280;55412;51.350;17.056;2023-11-19T09:19:00;99737.31;;;1.89;83.21
68433;BME280;55412;51.350;17.056;2023-11-19T09:21:28;99722.81;;;1.89;83.33
68433;BME280;55412;51.350;17.056;2023-11-19T09:23:55;99714.28;;;1.89;83.21
68433;BME280;55412;51.350;17.056;2023-11-19T09:26:21;99719.25;;;1.83;82.91
68433;BME280;55412;51.350;17.056;2023-11-19T09:28:47;99730.47;;;1.88;83.49
68433;BME280;55412;51.350;17.056;2023-11-19T09:31:17;99710.03;;;1.89;83.41
68433;BME280;55412;51.350;17.056;2023-11-19T09:33:43;99712.66;;;1.91;83.06
68433;BME280;55412;51.350;17.056;2023-11-19T09:36:12;99692.03;;;1.85;83.22
68433;BME280;55412;51.350;17.056;2023-11-19T09:38:40;99697.34;;;1.94;83.29
68433;BME280;55412;51.350;17.056;2023-11-19T09:41:05;99685.47;;;1.98;83.34
68433;BME280;55412;51.350;17.056;2023-11-19T09:43:39;99669.38;;;2.03;83.24
68433;BME280;55412;51.350;17.056;2023-11-19T09:46:07;99652.38;;;2.05;83.60
68433;BME280;55412;51.350;17.056;2023-11-19T09:48:37;99648.34;;;2.16;83.16
68433;BME280;55412;51.350;17.056;2023-11-19T09:51:05;99646.69;;;2.20;83.36
68433;BME280;55412;51.350;17.056;2023-11-19T09:53:31;99633.16;;;2.26;83.09
68433;BME280;55412;51.350;17.056;2023-11-19T09:56:00;99627.28;;;2.30;83.40
68433;BME280;55412;51.350;17.056;2023-11-19T09:58:26;99627.31;;;2.33;83.03
68433;BME280;55412;51.350;17.056;2023-11-19T10:00:52;99624.84;;;2.37;83.55
68433;BME280;55412;51.350;17.056;2023-11-19T10:03:17;99617.16;;;2.37;83.20
68433;BME280;55412;51.350;17.056;2023-11-19T10:05:43;99622.34;;;2.42;83.61
68433;BME280;55412;51.350;17.056;2023-11-19T10:08:09;99618.25;;;2.50;83.27
68433;BME280;55412;51.350;17.056;2023-11-19T10:10:39;99627.78;;;2.57;83.26
68433;BME280;55412;51.350;17.056;2023-11-19T10:13:05;99610.78;;;2.62;83.18
68433;BME280;55412;51.350;17.056;2023-11-19T10:15:36;99607.56;;;2.74;83.23
68433;BME280;55412;51.350;17.056;2023-11-19T10:18:03;99594.00;;;2.80;83.13
68433;BME280;55412;51.350;17.056;2023-11-19T10:20:40;99587.22;;;2.83;83.06
68433;BME280;55412;51.350;17.056;2023-11-19T10:23:12;99572.84;;;2.91;83.46
68433;BME280;55412;51.350;17.056;2023-11-19T10:25:38;99550.81;;;3.02;83.07
68433;BME280;55412;51.350;17.056;2023-11-19T10:28:04;99553.41;;;3.07;83.08
68433;BME280;55412;51.350;17.056;2023-11-19T10:30:30;99563.03;;;3.20;82.97
68433;BME280;55412;51.350;17.056;2023-11-19T10:33:11;99559.69;;;3.24;83.12
68433;BME280;55412;51.350;17.056;2023-11-19T10:35:56;99539.25;;;3.32;83.30
68433;BME280;55412;51.350;17.056;2023-11-19T10:38:23;99546.25;;;3.44;82.72
68433;BME280;55412;51.350;17.056;2023-11-19T10:40:50;99547.16;;;3.46;83.13
68433;BME280;55412;51.350;17.056;2023-11-19T10:43:17;99550.50;;;3.43;83.12
68433;BME280;55412;51.350;17.056;2023-11-19T10:45:43;99550.63;;;3.51;83.11
68433;BME280;55412;51.350;17.056;2023-11-19T10:48:09;99549.75;;;3.52;83.43
68433;BME280;55412;51.350;17.056;2023-11-19T10:50:37;99549.84;;;3.58;83.03
68433;BME280;55412;51.350;17.056;2023-11-19T10:53:05;99537.84;;;3.54;83.16
68433;BME280;55412;51.350;17.056;2023-11-19T10:55:33;99534.56;;;3.67;83.07
68433;BME280;55412;51.350;17.056;2023-11-19T10:58:05;99537.19;;;3.70;82.85
68433;BME280;55412;51.350;17.056;2023-11-19T11:00:45;99535.50;;;3.74;83.25
68433;BME280;55412;51.350;17.056;2023-11-19T11:03:19;99533.84;;;3.77;83.38
68433;BME280;55412;51.350;17.056;2023-11-19T11:05:49;99539.00;;;3.80;83.30
68433;BME280;55412;51.350;17.056;2023-11-19T11:08:16;99542.47;;;3.84;83.12
68433;BME280;55412;51.350;17.056;2023-11-19T11:13:18;99540.06;;;3.98;83.18
68433;BME280;55412;51.350;17.056;2023-11-19T11:15:45;99533.31;;;4.07;83.02
68433;BME280;55412;51.350;17.056;2023-11-19T11:18:13;99530.81;;;4.12;82.99
68433;BME280;55412;51.350;17.056;2023-11-19T11:20:39;99521.38;;;4.11;82.85
68433;BME280;55412;51.350;17.056;2023-11-19T11:23:32;99532.63;;;4.25;83.21
68433;BME280;55412;51.350;17.056;2023-11-19T11:26:23;99535.25;;;4.30;83.02
68433;BME280;55412;51.350;17.056;2023-11-19T11:31:51;99534.41;;;4.31;83.13
68433;BME280;55412;51.350;17.056;2023-11-19T11:34:47;99523.28;;;4.30;82.87
68433;BME280;55412;51.350;17.056;2023-11-19T11:37:32;99521.63;;;4.35;82.91
68433;BME280;55412;51.350;17.056;2023-11-19T11:39:58;99517.34;;;4.39;82.87
68433;BME280;55412;51.350;17.056;2023-11-19T11:45:05;99508.00;;;4.42;83.28
68433;BME280;55412;51.350;17.056;2023-11-19T11:50:23;99486.53;;;4.36;82.92
68433;BME280;55412;51.350;17.056;2023-11-19T11:55:52;99488.13;;;4.25;83.22
68433;BME280;55412;51.350;17.056;2023-11-19T11:58:21;99489.88;;;4.30;83.14
68433;BME280;55412;51.350;17.056;2023-11-19T12:00:48;99484.75;;;4.32;83.28
68433;BME280;55412;51.350;17.056;2023-11-19T12:03:14;99472.78;;;4.31;83.87
68433;BME280;55412;51.350;17.056;2023-11-19T12:05:48;99482.25;;;4.36;83.38
68433;BME280;55412;51.350;17.056;2023-11-19T12:08:16;99466.78;;;4.32;83.48
68433;BME280;55412;51.350;17.056;2023-11-19T12:10:53;99473.69;;;4.39;82.90
68433;BME280;55412;51.350;17.056;2023-11-19T12:13:20;99475.41;;;4.38;83.27
68433;BME280;55412;51.350;17.056;2023-11-19T12:18:27;99453.13;;;4.39;83.39
68433;BME280;55412;51.350;17.056;2023-11-19T12:20:54;99457.47;;;4.43;83.53
68433;BME280;55412;51.350;17.056;2023-11-19T12:23:21;99450.66;;;4.50;83.40
68433;BME280;55412;51.350;17.056;2023-11-19T12:25:47;99442.13;;;4.54;83.26
68433;BME280;55412;51.350;17.056;2023-11-19T12:28:14;99457.53;;;4.55;83.20
68433;BME280;55412;51.350;17.056;2023-11-19T12:30:40;99448.09;;;4.53;83.10
68433;BME280;55412;51.350;17.056;2023-11-19T12:33:09;99438.69;;;4.53;83.02
68433;BME280;55412;51.350;17.056;2023-11-19T12:35:45;99452.44;;;4.58;83.32
68433;BME280;55412;51.350;17.056;2023-11-19T12:38:25;99440.50;;;4.63;83.33
68433;BME280;55412;51.350;17.056;2023-11-19T12:41:06;99437.06;;;4.63;83.27
68433;BME280;55412;51.350;17.056;2023-11-19T12:43:32;99427.66;;;4.65;83.46
68433;BME280;55412;51.350;17.056;2023-11-19T12:46:00;99436.25;;;4.73;83.55
68433;BME280;55412;51.350;17.056;2023-11-19T12:48:25;99443.97;;;4.76;83.20
68433;BME280;55412;51.350;17.056;2023-11-19T12:50:57;99442.31;;;4.83;83.61
68433;BME280;55412;51.350;17.056;2023-11-19T12:53:26;99435.50;;;4.86;83.23
68433;BME280;55412;51.350;17.056;2023-11-19T12:55:52;99416.66;;;4.89;83.12
68433;BME280;55412;51.350;17.056;2023-11-19T12:58:35;99420.97;;;4.94;83.39
68433;BME280;55412;51.350;17.056;2023-11-19T13:01:06;99427.00;;;5.04;83.23
68433;BME280;55412;51.350;17.056;2023-11-19T13:03:33;99418.47;;;5.08;83.29
68433;BME280;55412;51.350;17.056;2023-11-19T13:08:39;99415.94;;;5.16;82.77
68433;BME280;55412;51.350;17.056;2023-11-19T13:11:06;99415.09;;;5.21;83.27
68433;BME280;55412;51.350;17.056;2023-11-19T13:13:56;99403.94;;;5.19;83.00
68433;BME280;55412;51.350;17.056;2023-11-19T13:16:23;99410.84;;;5.31;82.71
68433;BME280;55412;51.350;17.056;2023-11-19T13:18:48;99409.13;;;5.30;83.45